createdAt,value
2022-09-12T00:10:14.391Z,10.45
2022-09-12T00:14:03.575Z,10.42
2022-09-12T00:17:25.540Z,10.39
2022-09-12T00:28:37.480Z,10.26
2022-09-12T00:32:17.975Z,10.20
2022-09-12T00:36:03.017Z,10.17
2022-09-12T00:39:17.893Z,10.15
2022-09-12T00:56:36.276Z,10.06
2022-09-12T01:00:36.567Z,10.01
2022-09-12T01:04:40.785Z,9.99
2022-09-12T01:08:15.620Z,9.98
2022-09-12T01:20:22.841Z,9.91
2022-09-12T01:24:33.962Z,9.85
2022-09-12T01:28:45.305Z,9.81
2022-09-12T01:32:02.841Z,9.78
2022-09-12T01:36:21.207Z,9.75
2022-09-12T01:39:49.587Z,9.73
2022-09-12T01:43:22.259Z,9.74
2022-09-12T01:58:03.687Z,9.81
2022-09-12T02:01:38.811Z,9.75
2022-09-12T02:05:48.128Z,9.70
2022-09-12T02:08:53.378Z,9.65
2022-09-12T02:12:11.448Z,9.61
2022-09-12T02:15:27.764Z,9.59
2022-09-12T02:26:40.861Z,9.59
2022-09-12T02:30:03.530Z,9.58
2022-09-12T02:33:38.890Z,9.59
2022-09-12T02:37:11.053Z,9.60
2022-09-12T02:55:40.813Z,9.53
2022-09-12T02:59:09.983Z,9.48
2022-09-12T03:03:06.064Z,9.47
2022-09-12T03:06:32.235Z,9.43
2022-09-12T03:39:38.313Z,9.05
2022-09-12T03:43:13.141Z,9.04
2022-09-12T04:21:51.388Z,8.84
2022-09-12T04:31:48.600Z,8.76
2022-09-12T04:35:19.838Z,8.71
2022-09-12T04:38:27.690Z,8.67
2022-09-12T04:41:16.118Z,8.67
2022-09-12T04:44:09.780Z,8.66
2022-09-12T04:46:53.607Z,8.65
2022-09-12T06:04:47.224Z,9.56
2022-09-12T06:08:07.415Z,9.68
2022-09-12T06:11:29.477Z,9.80
2022-09-12T06:14:33.407Z,9.98
2022-09-12T06:18:05.156Z,10.11
2022-09-12T06:20:41.172Z,10.24
2022-09-12T06:23:58.719Z,10.31
2022-09-12T06:34:45.878Z,10.37
2022-09-12T06:38:42.671Z,10.36
2022-09-12T06:50:37.911Z,10.57
2022-09-12T07:11:32.722Z,10.44
2022-09-12T07:14:58.780Z,10.54
2022-09-12T07:18:22.521Z,10.65
2022-09-12T07:21:03.680Z,10.68
2022-09-12T07:24:15.993Z,10.69
2022-09-12T07:27:30.171Z,10.64
2022-09-12T07:31:04.053Z,10.85
2022-09-12T07:42:26.416Z,11.07
2022-09-12T07:45:17.756Z,11.27
2022-09-12T07:48:09.867Z,11.40
2022-09-12T07:51:21.813Z,11.50
2022-09-12T07:54:43.981Z,11.61
2022-09-12T07:58:06.591Z,11.67
2022-09-12T08:00:46.017Z,11.78
2022-09-12T08:04:22.065Z,11.75
2022-09-12T08:07:40.012Z,11.69
2022-09-12T08:11:57.826Z,11.85
2022-09-12T08:16:01.083Z,12.04
2022-09-12T08:27:26.729Z,12.40
2022-09-12T08:30:12.900Z,12.44
2022-09-12T08:33:57.511Z,12.58
2022-09-12T08:37:43.734Z,12.74
2022-09-12T08:41:07.541Z,12.60
2022-09-12T08:56:17.019Z,12.70
2022-09-12T08:59:57.357Z,12.89
2022-09-12T09:03:00.269Z,13.00
2022-09-12T09:06:59.473Z,13.14
2022-09-12T09:31:53.412Z,13.76
2022-09-12T09:35:36.236Z,13.78
2022-09-12T09:39:49.125Z,13.69
2022-09-12T09:43:45.452Z,13.72
2022-09-12T10:01:10.095Z,14.12
2022-09-12T10:04:12.875Z,13.95
2022-09-12T10:07:23.495Z,13.94
2022-09-12T10:10:37.515Z,14.02
2022-09-12T10:13:54.999Z,14.12
2022-09-12T10:33:31.515Z,14.24
2022-09-12T10:37:29.489Z,14.26
2022-09-12T10:41:00.607Z,14.34
2022-09-12T10:44:10.137Z,14.49
2022-09-12T11:03:32.979Z,14.41
2022-09-12T11:07:44.685Z,14.39
2022-09-12T11:11:33.402Z,14.45
2022-09-12T11:15:45.383Z,14.59
2022-09-12T11:19:03.999Z,14.63
2022-09-12T11:22:49.319Z,14.59
2022-09-12T11:26:13.974Z,14.62
2022-09-12T11:42:52.772Z,15.05
2022-09-12T11:46:21.629Z,15.13
2022-09-12T11:50:26.516Z,15.16
2022-09-12T11:54:16.217Z,15.17
2022-09-12T12:09:47.061Z,15.35
2022-09-12T12:13:00.082Z,15.32
2022-09-12T12:16:04.179Z,15.32
2022-09-12T12:19:37.359Z,15.27
2022-09-12T12:32:12.412Z,15.27
2022-09-12T12:36:07.912Z,15.33
2022-09-12T12:39:26.386Z,15.41
2022-09-12T13:00:41.917Z,15.36
2022-09-12T13:04:10.996Z,15.28
2022-09-12T13:07:55.934Z,15.16
2022-09-12T13:26:21.710Z,15.40
2022-09-12T13:30:34.560Z,15.46
2022-09-12T13:34:06.306Z,15.44
2022-09-12T13:37:51.626Z,15.34
2022-09-12T13:41:18.901Z,15.29
2022-09-12T13:45:02.208Z,15.23
2022-09-12T13:55:47.394Z,15.21
2022-09-12T13:59:50.813Z,15.26
2022-09-12T14:03:53.821Z,15.31
2022-09-12T14:07:23.450Z,15.28
2022-09-12T14:11:18.146Z,15.23
2022-09-12T14:26:24.796Z,15.21
2022-09-12T14:29:46.215Z,15.26
2022-09-12T14:32:47.874Z,15.30
2022-09-12T14:36:30.167Z,15.29
2022-09-12T14:44:57.950Z,15.24
2022-09-12T14:49:10.359Z,15.24
2022-09-12T14:52:10.565Z,15.23
2022-09-12T15:10:35.626Z,15.00
2022-09-12T15:14:24.996Z,14.92
2022-09-12T15:41:52.778Z,14.62
2022-09-12T15:45:23.586Z,14.57
2022-09-12T15:48:53.706Z,14.51
2022-09-12T15:52:43.084Z,14.43
2022-09-12T16:03:24.362Z,14.21
2022-09-12T16:06:16.208Z,14.13
2022-09-12T16:09:48.692Z,14.05
2022-09-12T16:13:06.293Z,13.95
2022-09-12T16:16:42.526Z,13.86
2022-09-12T16:19:34.525Z,13.74
2022-09-12T16:36:01.654Z,13.41
2022-09-12T16:39:04.833Z,13.31
2022-09-12T16:42:27.656Z,13.24
2022-09-12T16:45:44.230Z,13.12
2022-09-12T16:49:38.979Z,13.03
2022-09-12T17:05:26.120Z,12.75
2022-09-12T17:21:24.575Z,12.66
2022-09-12T17:24:36.978Z,12.59
2022-09-12T17:28:37.705Z,12.52
2022-09-12T17:31:55.060Z,12.44
2022-09-12T17:35:19.720Z,12.39
2022-09-12T17:48:06.907Z,12.16
2022-09-12T17:51:46.648Z,12.03
2022-09-12T17:55:36.782Z,11.96
2022-09-12T17:58:34.027Z,11.87
2022-09-12T18:02:10.009Z,11.82
2022-09-12T18:27:06.747Z,11.70
2022-09-12T18:30:31.231Z,11.65
2022-09-12T18:34:06.275Z,11.62
2022-09-12T18:46:39.504Z,11.38
2022-09-12T19:02:15.681Z,11.13
2022-09-12T19:05:42.863Z,11.00
2022-09-12T19:09:31.929Z,10.93
2022-09-12T19:25:04.442Z,10.61
2022-09-12T19:28:16.258Z,10.53
2022-09-12T19:31:59.239Z,10.49
2022-09-12T19:35:38.134Z,10.45
2022-09-12T19:48:00.036Z,10.38
2022-09-12T19:51:59.577Z,10.32
2022-09-12T20:07:19.312Z,10.27
2022-09-12T20:10:38.950Z,10.24
2022-09-12T20:14:39.248Z,10.21
2022-09-12T20:18:14.774Z,10.17
2022-09-12T20:21:33.234Z,10.12
2022-09-12T20:37:29.874Z,9.93
2022-09-12T20:41:39.385Z,9.85
2022-09-12T20:53:11.380Z,9.77
2022-09-12T20:57:01.833Z,9.71
2022-09-12T21:00:35.011Z,9.66
2022-09-12T21:16:26.362Z,9.62
2022-09-12T21:20:11.226Z,9.59
2022-09-12T21:23:58.265Z,9.58
2022-09-12T21:35:35.478Z,9.60
2022-09-12T21:39:01.947Z,9.58
2022-09-12T21:42:54.591Z,9.56
2022-09-12T22:05:28.856Z,9.42
2022-09-12T22:09:08.082Z,9.39
2022-09-12T22:12:46.517Z,9.38
2022-09-12T22:24:26.074Z,9.39
2022-09-12T22:28:12.056Z,9.35
2022-09-12T22:32:22.695Z,9.36
2022-09-12T22:48:08.579Z,9.36
2022-09-12T22:52:07.006Z,9.31
2022-09-12T23:04:14.716Z,9.43
2022-09-12T23:07:53.366Z,9.39
2022-09-12T23:11:26.588Z,9.38
2022-09-12T23:27:24.488Z,9.42
2022-09-12T23:31:01.249Z,9.41
2022-09-12T23:35:16.444Z,9.43
2022-09-12T23:51:11.889Z,9.52
2022-09-12T23:54:56.906Z,9.52
2022-09-12T23:58:47.213Z,9.52
